sensor_id;sensor_type;location;lat;lon;timestamp;temperature;humidity
7518;DHT22;3800;48.922;9.444;2023-02-27T00:00:59;-1.90;99.90
7518;DHT22;3800;48.922;9.444;2023-02-27T00:03:26;-1.90;99.90
7518;DHT22;3800;48.922;9.444;2023-02-27T00:05:54;-1.90;99.90
7518;DHT22;3800;48.922;9.444;2023-02-27T00:08:22;-1.90;99.90
7518;DHT22;3800;48.922;9.444;2023-02-27T00:10:50;-1.90;99.90
7518;DHT22;3800;48.922;9.444;2023-02-27T00:13:17;-2.00;99.90
7518;DHT22;3800;48.922;9.444;2023-02-27T00:15:45;-2.00;99.90
7518;DHT22;3800;48.922;9.444;2023-02-27T00:18:12;-2.00;99.90
7518;DHT22;3800;48.922;9.444;2023-02-27T00:20:40;-2.00;99.90
7518;DHT22;3800;48.922;9.444;2023-02-27T00:23:08;-2.10;99.90
7518;DHT22;3800;48.922;9.444;2023-02-27T00:25:36;-2.00;99.90
7518;DHT22;3800;48.922;9.444;2023-02-27T00:28:03;-2.00;99.90
7518;DHT22;3800;48.922;9.444;2023-02-27T00:30:31;-2.00;99.90
7518;DHT22;3800;48.922;9.444;2023-02-27T00:32:59;-2.00;99.90
7518;DHT22;3800;48.922;9.444;2023-02-27T00:35:26;-2.00;99.90
7518;DHT22;3800;48.922;9.444;2023-02-27T00:37:54;-2.00;99.90
7518;DHT22;3800;48.922;9.444;2023-02-27T00:40:21;-2.00;99.90
7518;DHT22;3800;48.922;9.444;2023-02-27T00:42:50;-1.90;99.90
7518;DHT22;3800;48.922;9.444;2023-02-27T00:45:17;-2.00;99.90
7518;DHT22;3800;48.922;9.444;2023-02-27T00:47:45;-1.90;99.90
7518;DHT22;3800;48.922;9.444;2023-02-27T00:50:13;-1.90;99.90
7518;DHT22;3800;48.922;9.444;2023-02-27T00:52:40;-1.90;99.90
7518;DHT22;3800;48.922;9.444;2023-02-27T00:55:08;-1.90;99.90
7518;DHT22;3800;48.922;9.444;2023-02-27T00:57:36;-2.00;99.90
7518;DHT22;3800;48.922;9.444;2023-02-27T01:00:05;-2.00;99.90
7518;DHT22;3800;48.922;9.444;2023-02-27T01:02:33;-2.00;99.90
7518;DHT22;3800;48.922;9.444;2023-02-27T01:05:00;-2.00;99.90
7518;DHT22;3800;48.922;9.444;2023-02-27T01:07:29;-2.00;99.90
7518;DHT22;3800;48.922;9.444;2023-02-27T01:09:56;-2.10;99.90
7518;DHT22;3800;48.922;9.444;2023-02-27T01:12:24;-2.00;99.90
7518;DHT22;3800;48.922;9.444;2023-02-27T01:14:52;-2.00;99.90
7518;DHT22;3800;48.922;9.444;2023-02-27T01:17:19;-2.00;99.90
7518;DHT22;3800;48.922;9.444;2023-02-27T01:19:47;-2.00;99.90
7518;DHT22;3800;48.922;9.444;2023-02-27T01:22:15;-1.90;99.90
7518;DHT22;3800;48.922;9.444;2023-02-27T01:24:42;-2.00;99.90
7518;DHT22;3800;48.922;9.444;2023-02-27T01:27:10;-1.90;99.90
7518;DHT22;3800;48.922;9.444;2023-02-27T01:29:38;-1.90;99.90
7518;DHT22;3800;48.922;9.444;2023-02-27T01:32:05;-1.90;99.90
7518;DHT22;3800;48.922;9.444;2023-02-27T01:34:33;-1.90;99.90
7518;DHT22;3800;48.922;9.444;2023-02-27T01:37:01;-1.90;99.90
7518;DHT22;3800;48.922;9.444;2023-02-27T01:39:29;-2.00;99.90
7518;DHT22;3800;48.922;9.444;2023-02-27T01:41:57;-1.90;99.90
7518;DHT22;3800;48.922;9.444;2023-02-27T01:44:25;-1.90;99.90
7518;DHT22;3800;48.922;9.444;2023-02-27T01:46:52;-1.90;99.90
7518;DHT22;3800;48.922;9.444;2023-02-27T01:49:22;-2.00;99.90
7518;DHT22;3800;48.922;9.444;2023-02-27T01:51:50;-2.00;99.90
7518;DHT22;3800;48.922;9.444;2023-02-27T01:54:18;-1.90;99.90
7518;DHT22;3800;48.922;9.444;2023-02-27T01:56:44;-2.00;99.90
7518;DHT22;3800;48.922;9.444;2023-02-27T01:59:12;-2.00;99.90
7518;DHT22;3800;48.922;9.444;2023-02-27T02:01:39;-2.00;99.90
7518;DHT22;3800;48.922;9.444;2023-02-27T02:04:27;-2.00;99.90
7518;DHT22;3800;48.922;9.444;2023-02-27T02:06:57;-2.00;99.90
7518;DHT22;3800;48.922;9.444;2023-02-27T02:09:22;-2.00;99.90
7518;DHT22;3800;48.922;9.444;2023-02-27T02:11:50;-2.00;99.90
7518;DHT22;3800;48.922;9.444;2023-02-27T02:14:17;-2.00;99.90
7518;DHT22;3800;48.922;9.444;2023-02-27T02:16:55;-2.00;99.90
7518;DHT22;3800;48.922;9.444;2023-02-27T02:25:00;-2.00;99.90
7518;DHT22;3800;48.922;9.444;2023-02-27T02:27:51;-2.00;99.90
7518;DHT22;3800;48.922;9.444;2023-02-27T02:33:19;-2.10;99.90
7518;DHT22;3800;48.922;9.444;2023-02-27T02:35:53;-2.10;99.90
7518;DHT22;3800;48.922;9.444;2023-02-27T02:38:37;-2.10;99.90
7518;DHT22;3800;48.922;9.444;2023-02-27T02:44:21;-2.10;99.90
7518;DHT22;3800;48.922;9.444;2023-02-27T02:46:30;-2.20;99.90
7518;DHT22;3800;48.922;9.444;2023-02-27T02:49:02;-2.10;99.90
7518;DHT22;3800;48.922;9.444;2023-02-27T02:52:40;-2.20;99.90
7518;DHT22;3800;48.922;9.444;2023-02-27T02:54:15;-2.20;99.90
7518;DHT22;3800;48.922;9.444;2023-02-27T02:56:46;-2.20;99.90
7518;DHT22;3800;48.922;9.444;2023-02-27T02:59:31;-2.20;99.90
7518;DHT22;3800;48.922;9.444;2023-02-27T03:02:01;-2.20;99.90
7518;DHT22;3800;48.922;9.444;2023-02-27T03:04:29;-2.20;99.90
7518;DHT22;3800;48.922;9.444;2023-02-27T03:06:56;-2.20;99.90
7518;DHT22;3800;48.922;9.444;2023-02-27T03:09:27;-2.20;99.90
7518;DHT22;3800;48.922;9.444;2023-02-27T03:11:53;-2.20;99.90
7518;DHT22;3800;48.922;9.444;2023-02-27T03:14:33;-2.20;99.90
7518;DHT22;3800;48.922;9.444;2023-02-27T03:17:00;-2.20;99.90
7518;DHT22;3800;48.922;9.444;2023-02-27T03:19:30;-2.20;99.90
7518;DHT22;3800;48.922;9.444;2023-02-27T03:22:00;-2.20;99.90
7518;DHT22;3800;48.922;9.444;2023-02-27T03:24:31;-2.20;99.90
7518;DHT22;3800;48.922;9.444;2023-02-27T03:26:57;-2.20;99.90
7518;DHT22;3800;48.922;9.444;2023-02-27T03:29:27;-2.30;99.90
7518;DHT22;3800;48.922;9.444;2023-02-27T03:31:55;-2.30;99.90
7518;DHT22;3800;48.922;9.444;2023-02-27T03:34:28;-2.30;99.90
7518;DHT22;3800;48.922;9.444;2023-02-27T03:36:59;-2.30;99.90
7518;DHT22;3800;48.922;9.444;2023-02-27T03:39:27;-2.30;99.90
7518;DHT22;3800;48.922;9.444;2023-02-27T03:41:57;-2.30;99.90
7518;DHT22;3800;48.922;9.444;2023-02-27T03:44:28;-2.40;99.90
7518;DHT22;3800;48.922;9.444;2023-02-27T03:46:54;-2.40;99.90
7518;DHT22;3800;48.922;9.444;2023-02-27T03:49:22;-2.40;99.90
7518;DHT22;3800;48.922;9.444;2023-02-27T03:51:50;-2.40;99.90
7518;DHT22;3800;48.922;9.444;2023-02-27T03:54:19;-2.40;99.90
7518;DHT22;3800;48.922;9.444;2023-02-27T03:56:49;-2.40;99.90
7518;DHT22;3800;48.922;9.444;2023-02-27T03:59:15;-2.40;99.90
7518;DHT22;3800;48.922;9.444;2023-02-27T04:01:42;-2.40;99.90
7518;DHT22;3800;48.922;9.444;2023-02-27T04:04:11;-2.40;99.90
7518;DHT22;3800;48.922;9.444;2023-02-27T04:06:38;-2.40;99.90
7518;DHT22;3800;48.922;9.444;2023-02-27T04:09:19;-2.40;99.90
7518;DHT22;3800;48.922;9.444;2023-02-27T04:11:53;-2.40;99.90
7518;DHT22;3800;48.922;9.444;2023-02-27T04:14:22;-2.40;99.90
7518;DHT22;3800;48.922;9.444;2023-02-27T04:16:56;-2.40;99.90
7518;DHT22;3800;48.922;9.444;2023-02-27T04:19:45;-2.40;99.90
7518;DHT22;3800;48.922;9.444;2023-02-27T04:22:46;-2.40;99.90
7518;DHT22;3800;48.922;9.444;2023-02-27T04:27:48;-2.50;99.90
7518;DHT22;3800;48.922;9.444;2023-02-27T04:30:54;-2.50;99.90
7518;DHT22;3800;48.922;9.444;2023-02-27T04:33:23;-2.50;99.90
7518;DHT22;3800;48.922;9.444;2023-02-27T04:35:53;-2.50;99.90
7518;DHT22;3800;48.922;9.444;2023-02-27T04:38:22;-2.50;99.90
7518;DHT22;3800;48.922;9.444;2023-02-27T04:40:53;-2.50;99.90
7518;DHT22;3800;48.922;9.444;2023-02-27T04:43:19;-2.50;99.90
7518;DHT22;3800;48.922;9.444;2023-02-27T04:45:47;-2.50;99.90
7518;DHT22;3800;48.922;9.444;2023-02-27T04:48:26;-2.50;99.90
7518;DHT22;3800;48.922;9.444;2023-02-27T04:50:54;-2.60;99.90
7518;DHT22;3800;48.922;9.444;2023-02-27T04:53:24;-2.60;99.90
7518;DHT22;3800;48.922;9.444;2023-02-27T04:55:53;-2.60;99.90
7518;DHT22;3800;48.922;9.444;2023-02-27T04:58:22;-2.60;99.90
7518;DHT22;3800;48.922;9.444;2023-02-27T05:00:50;-2.60;99.90
7518;DHT22;3800;48.922;9.444;2023-02-27T05:03:20;-2.60;99.90
7518;DHT22;3800;48.922;9.444;2023-02-27T05:05:46;-2.60;99.90
7518;DHT22;3800;48.922;9.444;2023-02-27T05:08:15;-2.60;99.90
7518;DHT22;3800;48.922;9.444;2023-02-27T05:10:45;-2.70;99.90
7518;DHT22;3800;48.922;9.444;2023-02-27T05:13:14;-2.70;99.90
7518;DHT22;3800;48.922;9.444;2023-02-27T05:15:44;-2.70;99.90
7518;DHT22;3800;48.922;9.444;2023-02-27T05:18:11;-2.70;99.90
7518;DHT22;3800;48.922;9.444;2023-02-27T05:20:52;-2.70;99.90
7518;DHT22;3800;48.922;9.444;2023-02-27T05:23:29;-2.70;99.90
7518;DHT22;3800;48.922;9.444;2023-02-27T05:25:57;-2.70;99.90
7518;DHT22;3800;48.922;9.444;2023-02-27T05:31:13;-2.70;99.90
7518;DHT22;3800;48.922;9.444;2023-02-27T05:33:47;-2.70;99.90
7518;DHT22;3800;48.922;9.444;2023-02-27T05:36:22;-2.70;99.90
7518;DHT22;3800;48.922;9.444;2023-02-27T05:38:50;-2.70;99.90
7518;DHT22;3800;48.922;9.444;2023-02-27T05:41:22;-2.70;99.90
7518;DHT22;3800;48.922;9.444;2023-02-27T05:43:49;-2.60;99.90
7518;DHT22;3800;48.922;9.444;2023-02-27T05:46:19;-2.70;99.90
7518;DHT22;3800;48.922;9.444;2023-02-27T05:48:49;-2.70;99.90
7518;DHT22;3800;48.922;9.444;2023-02-27T05:51:15;-2.70;99.90
7518;DHT22;3800;48.922;9.444;2023-02-27T05:53:45;-2.70;99.90
7518;DHT22;3800;48.922;9.444;2023-02-27T05:56:11;-2.70;99.90
7518;DHT22;3800;48.922;9.444;2023-02-27T05:58:40;-2.70;99.90
7518;DHT22;3800;48.922;9.444;2023-02-27T06:01:07;-2.70;99.90
7518;DHT22;3800;48.922;9.444;2023-02-27T06:03:36;-2.70;99.90
7518;DHT22;3800;48.922;9.444;2023-02-27T06:06:04;-2.70;99.90
7518;DHT22;3800;48.922;9.444;2023-02-27T06:08:31;-2.70;99.90
7518;DHT22;3800;48.922;9.444;2023-02-27T06:10:58;-2.70;99.90
7518;DHT22;3800;48.922;9.444;2023-02-27T06:13:26;-2.70;99.90
7518;DHT22;3800;48.922;9.444;2023-02-27T06:15:54;-2.70;99.90
7518;DHT22;3800;48.922;9.444;2023-02-27T06:18:21;-2.70;99.90
7518;DHT22;3800;48.922;9.444;2023-02-27T06:20:50;-2.70;99.90
7518;DHT22;3800;48.922;9.444;2023-02-27T06:23:17;-2.70;99.90
7518;DHT22;3800;48.922;9.444;2023-02-27T06:25:45;-2.70;99.90
7518;DHT22;3800;48.922;9.444;2023-02-27T06:28:13;-2.70;99.90
7518;DHT22;3800;48.922;9.444;2023-02-27T06:30:42;-2.70;99.90
7518;DHT22;3800;48.922;9.444;2023-02-27T06:33:10;-2.70;99.90
7518;DHT22;3800;48.922;9.444;2023-02-27T06:35:38;-2.80;99.90
7518;DHT22;3800;48.922;9.444;2023-02-27T06:38:06;-2.80;99.90
7518;DHT22;3800;48.922;9.444;2023-02-27T06:40:33;-2.80;99.90
7518;DHT22;3800;48.922;9.444;2023-02-27T06:43:01;-2.80;99.90
7518;DHT22;3800;48.922;9.444;2023-02-27T06:45:30;-2.80;99.90
7518;DHT22;3800;48.922;9.444;2023-02-27T06:47:58;-2.80;99.90
7518;DHT22;3800;48.922;9.444;2023-02-27T06:50:25;-2.80;99.90
7518;DHT22;3800;48.922;9.444;2023-02-27T06:52:53;-2.70;99.90
7518;DHT22;3800;48.922;9.444;2023-02-27T06:55:21;-2.70;99.90
7518;DHT22;3800;48.922;9.444;2023-02-27T06:57:48;-2.70;99.90
7518;DHT22;3800;48.922;9.444;2023-02-27T07:00:16;-2.70;99.90
7518;DHT22;3800;48.922;9.444;2023-02-27T07:02:44;-2.60;99.90
7518;DHT22;3800;48.922;9.444;2023-02-27T07:05:12;-2.60;99.90
7518;DHT22;3800;48.922;9.444;2023-02-27T07:07:39;-2.60;99.90
7518;DHT22;3800;48.922;9.444;2023-02-27T07:10:09;-2.50;99.90
7518;DHT22;3800;48.922;9.444;2023-02-27T07:12:36;-2.50;99.90
7518;DHT22;3800;48.922;9.444;2023-02-27T07:15:04;-2.50;99.90
7518;DHT22;3800;48.922;9.444;2023-02-27T07:17:32;-2.50;99.90
7518;DHT22;3800;48.922;9.444;2023-02-27T07:20:00;-2.40;99.90
7518;DHT22;3800;48.922;9.444;2023-02-27T07:22:28;-2.40;99.90
7518;DHT22;3800;48.922;9.444;2023-02-27T07:24:55;-2.30;99.90
7518;DHT22;3800;48.922;9.444;2023-02-27T07:27:24;-2.20;99.90
7518;DHT22;3800;48.922;9.444;2023-02-27T07:29:51;-2.30;99.90
7518;DHT22;3800;48.922;9.444;2023-02-27T07:32:19;-2.20;99.90
7518;DHT22;3800;48.922;9.444;2023-02-27T07:34:47;-2.20;99.90
7518;DHT22;3800;48.922;9.444;2023-02-27T07:37:15;-2.10;99.90
7518;DHT22;3800;48.922;9.444;2023-02-27T07:39:43;-2.10;99.90
7518;DHT22;3800;48.922;9.444;2023-02-27T07:42:11;-2.00;99.90
7518;DHT22;3800;48.922;9.444;2023-02-27T07:44:39;-2.00;99.90
7518;DHT22;3800;48.922;9.444;2023-02-27T07:47:07;-1.90;99.90
7518;DHT22;3800;48.922;9.444;2023-02-27T07:49:36;-1.80;99.90
7518;DHT22;3800;48.922;9.444;2023-02-27T07:52:04;-1.80;99.90
7518;DHT22;3800;48.922;9.444;2023-02-27T07:54:31;-1.70;99.90
7518;DHT22;3800;48.922;9.444;2023-02-27T07:56:59;-1.60;99.90
7518;DHT22;3800;48.922;9.444;2023-02-27T07:59:27;-1.50;99.90
7518;DHT22;3800;48.922;9.444;2023-02-27T08:01:55;-1.50;99.90
7518;DHT22;3800;48.922;9.444;2023-02-27T08:04:23;-1.30;99.90
7518;DHT22;3800;48.922;9.444;2023-02-27T08:06:52;-1.30;99.90
7518;DHT22;3800;48.922;9.444;2023-02-27T08:09:20;-1.10;99.90
7518;DHT22;3800;48.922;9.444;2023-02-27T08:11:49;-1.10;99.90
7518;DHT22;3800;48.922;9.444;2023-02-27T08:14:17;-1.00;99.90
7518;DHT22;3800;48.922;9.444;2023-02-27T08:16:44;-0.90;99.90
7518;DHT22;3800;48.922;9.444;2023-02-27T08:19:12;-0.80;99.90
7518;DHT22;3800;48.922;9.444;2023-02-27T08:21:40;-0.70;99.90
7518;DHT22;3800;48.922;9.444;2023-02-27T08:24:09;-0.50;99.90
7518;DHT22;3800;48.922;9.444;2023-02-27T08:26:37;-0.60;99.90
7518;DHT22;3800;48.922;9.444;2023-02-27T08:29:04;-0.50;99.90
7518;DHT22;3800;48.922;9.444;2023-02-27T08:31:32;-0.40;99.90
7518;DHT22;3800;48.922;9.444;2023-02-27T08:34:00;-0.30;99.90
7518;DHT22;3800;48.922;9.444;2023-02-27T08:36:28;-0.30;99.90
7518;DHT22;3800;48.922;9.444;2023-02-27T08:38:56;-0.20;99.90
7518;DHT22;3800;48.922;9.444;2023-02-27T08:41:24;-0.20;99.90
7518;DHT22;3800;48.922;9.444;2023-02-27T08:43:53;0.00;99.90
7518;DHT22;3800;48.922;9.444;2023-02-27T08:46:21;0.00;99.90
7518;DHT22;3800;48.922;9.444;2023-02-27T08:48:49;0.10;99.90
7518;DHT22;3800;48.922;9.444;2023-02-27T08:51:17;0.10;99.90
7518;DHT22;3800;48.922;9.444;2023-02-27T08:53:45;0.20;99.90
7518;DHT22;3800;48.922;9.444;2023-02-27T08:56:12;0.30;99.90
7518;DHT22;3800;48.922;9.444;2023-02-27T08:58:40;0.30;99.90
7518;DHT22;3800;48.922;9.444;2023-02-27T09:01:08;0.40;99.90
7518;DHT22;3800;48.922;9.444;2023-02-27T09:03:35;0.40;99.90
7518;DHT22;3800;48.922;9.444;2023-02-27T09:06:04;0.50;99.90
7518;DHT22;3800;48.922;9.444;2023-02-27T09:08:32;0.50;99.90
7518;DHT22;3800;48.922;9.444;2023-02-27T09:11:00;0.50;99.90
7518;DHT22;3800;48.922;9.444;2023-02-27T09:13:28;0.60;99.90
7518;DHT22;3800;48.922;9.444;2023-02-27T09:15:56;0.70;99.90
7518;DHT22;3800;48.922;9.444;2023-02-27T09:18:24;0.70;99.90
7518;DHT22;3800;48.922;9.444;2023-02-27T09:20:52;0.70;99.90
7518;DHT22;3800;48.922;9.444;2023-02-27T09:23:19;0.70;99.90
7518;DHT22;3800;48.922;9.444;2023-02-27T09:25:47;0.80;99.90
7518;DHT22;3800;48.922;9.444;2023-02-27T09:28:14;0.80;99.90
7518;DHT22;3800;48.922;9.444;2023-02-27T09:30:42;0.80;99.90
7518;DHT22;3800;48.922;9.444;2023-02-27T09:33:10;0.90;99.90
7518;DHT22;3800;48.922;9.444;2023-02-27T09:35:40;0.90;99.90
7518;DHT22;3800;48.922;9.444;2023-02-27T09:38:07;0.90;99.90
7518;DHT22;3800;48.922;9.444;2023-02-27T09:40:38;0.90;99.90
7518;DHT22;3800;48.922;9.444;2023-02-27T09:43:13;0.90;99.90
7518;DHT22;3800;48.922;9.444;2023-02-27T09:45:37;0.90;99.90
7518;DHT22;3800;48.922;9.444;2023-02-27T09:48:24;1.00;99.90
7518;DHT22;3800;48.922;9.444;2023-02-27T09:50:49;1.00;99.90
7518;DHT22;3800;48.922;9.444;2023-02-27T09:53:38;1.10;99.90
7518;DHT22;3800;48.922;9.444;2023-02-27T09:58:50;1.20;99.90
7518;DHT22;3800;48.922;9.444;2023-02-27T10:01:19;1.40;99.90
7518;DHT22;3800;48.922;9.444;2023-02-27T10:06:25;1.40;99.90
7518;DHT22;3800;48.922;9.444;2023-02-27T10:09:18;1.60;99.90
7518;DHT22;3800;48.922;9.444;2023-02-27T10:12:27;1.60;99.90
7518;DHT22;3800;48.922;9.444;2023-02-27T10:14:36;1.70;99.90
7518;DHT22;3800;48.922;9.444;2023-02-27T10:17:03;1.70;99.90
7518;DHT22;3800;48.922;9.444;2023-02-27T10:19:31;1.80;99.90
7518;DHT22;3800;48.922;9.444;2023-02-27T10:21:58;1.80;99.90
7518;DHT22;3800;48.922;9.444;2023-02-27T10:24:32;1.80;99.90
7518;DHT22;3800;48.922;9.444;2023-02-27T10:27:00;1.80;99.90
7518;DHT22;3800;48.922;9.444;2023-02-27T10:29:28;1.90;99.90
7518;DHT22;3800;48.922;9.444;2023-02-27T10:31:59;1.90;99.90
7518;DHT22;3800;48.922;9.444;2023-02-27T10:34:24;2.00;99.90
7518;DHT22;3800;48.922;9.444;2023-02-27T10:36:52;2.10;99.90
7518;DHT22;3800;48.922;9.444;2023-02-27T10:39:20;2.20;99.90
7518;DHT22;3800;48.922;9.444;2023-02-27T10:41:49;2.20;99.20
7518;DHT22;3800;48.922;9.444;2023-02-27T10:44:16;2.10;99.50
7518;DHT22;3800;48.922;9.444;2023-02-27T10:46:44;2.10;99.30
7518;DHT22;3800;48.922;9.444;2023-02-27T10:49:17;2.10;98.80
7518;DHT22;3800;48.922;9.444;2023-02-27T10:52:02;2.10;99.90
7518;DHT22;3800;48.922;9.444;2023-02-27T10:54:20;2.20;98.70
7518;DHT22;3800;48.922;9.444;2023-02-27T10:56:48;2.20;98.20
7518;DHT22;3800;48.922;9.444;2023-02-27T10:59:22;2.20;99.90
7518;DHT22;3800;48.922;9.444;2023-02-27T11:01:51;2.40;99.70
7518;DHT22;3800;48.922;9.444;2023-02-27T11:04:25;2.30;99.70
7518;DHT22;3800;48.922;9.444;2023-02-27T11:06:52;2.40;98.00
7518;DHT22;3800;48.922;9.444;2023-02-27T11:09:22;2.40;98.20
7518;DHT22;3800;48.922;9.444;2023-02-27T11:11:49;2.40;97.80
7518;DHT22;3800;48.922;9.444;2023-02-27T11:14:29;2.40;99.10
7518;DHT22;3800;48.922;9.444;2023-02-27T11:16:57;2.30;98.00
7518;DHT22;3800;48.922;9.444;2023-02-27T11:19:30;2.20;97.60
7518;DHT22;3800;48.922;9.444;2023-02-27T11:22:01;2.20;98.80
7518;DHT22;3800;48.922;9.444;2023-02-27T11:24:28;2.10;98.50
7518;DHT22;3800;48.922;9.444;2023-02-27T11:26:58;2.10;98.40
7518;DHT22;3800;48.922;9.444;2023-02-27T11:29:24;2.10;98.90
7518;DHT22;3800;48.922;9.444;2023-02-27T11:31:54;2.10;98.30
7518;DHT22;3800;48.922;9.444;2023-02-27T11:34:24;2.20;97.50
7518;DHT22;3800;48.922;9.444;2023-02-27T11:36:50;2.20;96.70
7518;DHT22;3800;48.922;9.444;2023-02-27T11:39:24;2.30;97.60
7518;DHT22;3800;48.922;9.444;2023-02-27T11:41:51;2.40;98.60
7518;DHT22;3800;48.922;9.444;2023-02-27T11:44:18;2.50;97.30
7518;DHT22;3800;48.922;9.444;2023-02-27T11:46:45;2.40;98.30
7518;DHT22;3800;48.922;9.444;2023-02-27T11:49:33;2.40;98.70
7518;DHT22;3800;48.922;9.444;2023-02-27T11:52:11;2.50;98.40
7518;DHT22;3800;48.922;9.444;2023-02-27T11:54:56;2.40;98.40
7518;DHT22;3800;48.922;9.444;2023-02-27T11:57:26;2.60;99.10
7518;DHT22;3800;48.922;9.444;2023-02-27T12:00:00;2.80;98.50
7518;DHT22;3800;48.922;9.444;2023-02-27T12:02:38;2.90;98.10
7518;DHT22;3800;48.922;9.444;2023-02-27T12:05:13;2.80;97.30
7518;DHT22;3800;48.922;9.444;2023-02-27T12:07:43;2.80;97.30
7518;DHT22;3800;48.922;9.444;2023-02-27T12:10:19;2.90;97.60
7518;DHT22;3800;48.922;9.444;2023-02-27T12:12:56;3.10;97.90
7518;DHT22;3800;48.922;9.444;2023-02-27T12:15:30;3.10;97.90
7518;DHT22;3800;48.922;9.444;2023-02-27T12:18:03;3.20;97.50
7518;DHT22;3800;48.922;9.444;2023-02-27T12:20:49;3.30;97.70
7518;DHT22;3800;48.922;9.444;2023-02-27T12:23:20;3.20;97.80
7518;DHT22;3800;48.922;9.444;2023-02-27T12:25:51;3.00;98.10
7518;DHT22;3800;48.922;9.444;2023-02-27T12:28:25;3.00;98.10
7518;DHT22;3800;48.922;9.444;2023-02-27T12:31:16;3.10;99.00
7518;DHT22;3800;48.922;9.444;2023-02-27T12:33:47;3.20;98.10
7518;DHT22;3800;48.922;9.444;2023-02-27T12:36:12;3.10;96.60
7518;DHT22;3800;48.922;9.444;2023-02-27T12:38:40;3.00;96.40
7518;DHT22;3800;48.922;9.444;2023-02-27T12:43:48;3.10;97.10
7518;DHT22;3800;48.922;9.444;2023-02-27T12:46:18;3.20;95.90
7518;DHT22;3800;48.922;9.444;2023-02-27T12:48:51;3.20;97.00
7518;DHT22;3800;48.922;9.444;2023-02-27T12:51:25;3.20;97.00
7518;DHT22;3800;48.922;9.444;2023-02-27T12:53:57;3.30;97.50
7518;DHT22;3800;48.922;9.444;2023-02-27T12:56:23;3.40;97.10
7518;DHT22;3800;48.922;9.444;2023-02-27T12:59:05;3.50;97.50
7518;DHT22;3800;48.922;9.444;2023-02-27T13:01:47;3.50;96.50
7518;DHT22;3800;48.922;9.444;2023-02-27T13:04:21;3.40;96.00
7518;DHT22;3800;48.922;9.444;2023-02-27T13:06:50;3.40;96.40
7518;DHT22;3800;48.922;9.444;2023-02-27T13:09:32;3.40;96.40
7518;DHT22;3800;48.922;9.444;2023-02-27T13:12:04;3.50;96.70
7518;DHT22;3800;48.922;9.444;2023-02-27T13:14:52;3.50;97.00
7518;DHT22;3800;48.922;9.444;2023-02-27T13:17:18;3.40;96.30
7518;DHT22;3800;48.922;9.444;2023-02-27T13:20:37;3.30;96.70
7518;DHT22;3800;48.922;9.444;2023-02-27T13:23:04;3.30;96.20
7518;DHT22;3800;48.922;9.444;2023-02-27T13:25:28;3.10;96.20
7518;DHT22;3800;48.922;9.444;2023-02-27T13:27:57;3.10;95.50
7518;DHT22;3800;48.922;9.444;2023-02-27T13:30:27;3.20;96.10
7518;DHT22;3800;48.922;9.444;2023-02-27T13:33:16;3.10;96.00
7518;DHT22;3800;48.922;9.444;2023-02-27T13:35:47;3.10;96.20
7518;DHT22;3800;48.922;9.444;2023-02-27T13:40:49;3.00;95.80
7518;DHT22;3800;48.922;9.444;2023-02-27T13:45:57;3.10;96.50
7518;DHT22;3800;48.922;9.444;2023-02-27T13:48:34;3.10;95.20
7518;DHT22;3800;48.922;9.444;2023-02-27T13:51:01;3.00;94.70
7518;DHT22;3800;48.922;9.444;2023-02-27T13:53:29;3.00;94.70
7518;DHT22;3800;48.922;9.444;2023-02-27T13:55:58;3.00;94.90
7518;DHT22;3800;48.922;9.444;2023-02-27T13:58:25;2.90;94.20
7518;DHT22;3800;48.922;9.444;2023-02-27T14:00:54;2.90;93.70
7518;DHT22;3800;48.922;9.444;2023-02-27T14:03:22;2.90;93.70
7518;DHT22;3800;48.922;9.444;2023-02-27T14:05:49;2.90;93.70
7518;DHT22;3800;48.922;9.444;2023-02-27T14:08:22;2.90;94.40
7518;DHT22;3800;48.922;9.444;2023-02-27T14:10:54;3.10;95.50
7518;DHT22;3800;48.922;9.444;2023-02-27T14:16:00;3.40;95.20
7518;DHT22;3800;48.922;9.444;2023-02-27T14:18:49;3.50;96.10
7518;DHT22;3800;48.922;9.444;2023-02-27T14:21:48;3.60;95.30
7518;DHT22;3800;48.922;9.444;2023-02-27T14:23:42;3.50;94.70
7518;DHT22;3800;48.922;9.444;2023-02-27T14:26:14;3.30;94.80
7518;DHT22;3800;48.922;9.444;2023-02-27T14:28:49;3.00;94.30
7518;DHT22;3800;48.922;9.444;2023-02-27T14:31:35;2.80;94.30
7518;DHT22;3800;48.922;9.444;2023-02-27T14:34:03;2.70;94.30
7518;DHT22;3800;48.922;9.444;2023-02-27T14:36:33;2.60;94.20
7518;DHT22;3800;48.922;9.444;2023-02-27T14:38:59;2.50;94.90
7518;DHT22;3800;48.922;9.444;2023-02-27T14:41:44;2.40;93.70
7518;DHT22;3800;48.922;9.444;2023-02-27T14:44:18;2.40;94.00
7518;DHT22;3800;48.922;9.444;2023-02-27T14:46:45;2.40;94.50
7518;DHT22;3800;48.922;9.444;2023-02-27T14:49:18;2.40;93.70
7518;DHT22;3800;48.922;9.444;2023-02-27T14:51:43;2.50;95.00
7518;DHT22;3800;48.922;9.444;2023-02-27T14:54:14;2.50;93.90
7518;DHT22;3800;48.922;9.444;2023-02-27T14:56:41;2.50;93.90
7518;DHT22;3800;48.922;9.444;2023-02-27T14:59:19;2.60;94.10
7518;DHT22;3800;48.922;9.444;2023-02-27T15:01:46;2.60;94.00
7518;DHT22;3800;48.922;9.444;2023-02-27T15:04:15;2.60;93.90
7518;DHT22;3800;48.922;9.444;2023-02-27T15:06:43;2.70;95.20
7518;DHT22;3800;48.922;9.444;2023-02-27T15:09:17;2.80;95.50
7518;DHT22;3800;48.922;9.444;2023-02-27T15:11:40;2.90;95.50
7518;DHT22;3800;48.922;9.444;2023-02-27T15:14:14;2.90;94.80
7518;DHT22;3800;48.922;9.444;2023-02-27T15:16:36;2.90;94.60
7518;DHT22;3800;48.922;9.444;2023-02-27T15:19:11;2.70;93.20
7518;DHT22;3800;48.922;9.444;2023-02-27T15:21:39;2.60;93.10
7518;DHT22;3800;48.922;9.444;2023-02-27T15:24:06;2.40;94.20
7518;DHT22;3800;48.922;9.444;2023-02-27T15:26:35;2.40;94.40
7518;DHT22;3800;48.922;9.444;2023-02-27T15:29:02;2.40;94.40
7518;DHT22;3800;48.922;9.444;2023-02-27T15:31:29;2.30;94.60
7518;DHT22;3800;48.922;9.444;2023-02-27T15:33:58;2.30;94.30
7518;DHT22;3800;48.922;9.444;2023-02-27T15:36:27;2.30;94.70
7518;DHT22;3800;48.922;9.444;2023-02-27T15:39:06;2.30;93.90
7518;DHT22;3800;48.922;9.444;2023-02-27T15:41:32;2.20;94.00
7518;DHT22;3800;48.922;9.444;2023-02-27T15:44:00;2.20;94.50
7518;DHT22;3800;48.922;9.444;2023-02-27T15:46:27;2.10;94.30
7518;DHT22;3800;48.922;9.444;2023-02-27T15:48:55;2.10;94.10
7518;DHT22;3800;48.922;9.444;2023-02-27T15:51:25;1.90;94.10
7518;DHT22;3800;48.922;9.444;2023-02-27T15:53:53;1.90;93.90
7518;DHT22;3800;48.922;9.444;2023-02-27T15:56:22;1.90;94.10
7518;DHT22;3800;48.922;9.444;2023-02-27T15:58:48;1.90;94.10
7518;DHT22;3800;48.922;9.444;2023-02-27T16:01:18;1.80;94.80
7518;DHT22;3800;48.922;9.444;2023-02-27T16:03:46;1.70;95.30
7518;DHT22;3800;48.922;9.444;2023-02-27T16:06:17;1.60;95.60
7518;DHT22;3800;48.922;9.444;2023-02-27T16:08:48;1.60;95.40
7518;DHT22;3800;48.922;9.444;2023-02-27T16:11:18;1.70;94.20
7518;DHT22;3800;48.922;9.444;2023-02-27T16:13:44;1.70;93.90
7518;DHT22;3800;48.922;9.444;2023-02-27T16:16:26;1.70;95.10
7518;DHT22;3800;48.922;9.444;2023-02-27T16:18:56;1.70;94.70
7518;DHT22;3800;48.922;9.444;2023-02-27T16:21:24;1.70;94.40
7518;DHT22;3800;48.922;9.444;2023-02-27T16:23:53;1.70;95.00
7518;DHT22;3800;48.922;9.444;2023-02-27T16:26:31;1.70;95.40
7518;DHT22;3800;48.922;9.444;2023-02-27T16:28:59;1.70;95.40
7518;DHT22;3800;48.922;9.444;2023-02-27T16:31:28;1.70;96.00
7518;DHT22;3800;48.922;9.444;2023-02-27T16:33:57;1.70;96.40
7518;DHT22;3800;48.922;9.444;2023-02-27T16:36:25;1.70;95.90
7518;DHT22;3800;48.922;9.444;2023-02-27T16:38:53;1.70;95.70
7518;DHT22;3800;48.922;9.444;2023-02-27T16:41:22;1.60;95.60
7518;DHT22;3800;48.922;9.444;2023-02-27T16:43:51;1.60;94.10
7518;DHT22;3800;48.922;9.444;2023-02-27T16:46:17;1.60;94.50
7518;DHT22;3800;48.922;9.444;2023-02-27T16:48:51;1.60;94.60
7518;DHT22;3800;48.922;9.444;2023-02-27T16:51:18;1.60;94.40
7518;DHT22;3800;48.922;9.444;2023-02-27T16:53:45;1.60;94.90
7518;DHT22;3800;48.922;9.444;2023-02-27T16:56:13;1.50;94.40
7518;DHT22;3800;48.922;9.444;2023-02-27T16:58:40;1.50;94.40
7518;DHT22;3800;48.922;9.444;2023-02-27T17:01:08;1.50;94.40